createdAt,value
2023-02-24T00:01:37.250Z,66.46
2023-02-24T00:03:45.086Z,66.33
2023-02-24T00:05:49.944Z,65.63
2023-02-24T00:07:52.743Z,65.87
2023-02-24T00:09:55.535Z,65.10
2023-02-24T00:12:01.075Z,65.07
2023-02-24T00:14:06.650Z,65.02
2023-02-24T00:16:11.909Z,64.66
2023-02-24T00:18:15.551Z,65.08
2023-02-24T00:20:19.075Z,65.21
2023-02-24T00:22:21.893Z,65.33
2023-02-24T00:24:25.242Z,65.68
2023-02-24T00:26:29.888Z,65.70
2023-02-24T00:28:32.686Z,65.06
2023-02-24T00:30:35.643Z,65.08
2023-02-24T00:32:39.930Z,65.49
2023-02-24T00:34:43.542Z,65.25
2023-02-24T00:36:46.325Z,65.29
2023-02-24T00:38:49.319Z,65.88
2023-02-24T00:40:52.189Z,65.78
2023-02-24T00:42:55.047Z,65.82
2023-02-24T00:44:57.881Z,65.82
2023-02-24T00:47:01.401Z,65.41
2023-02-24T00:49:10.379Z,65.60
2023-02-24T00:51:16.518Z,66.20
2023-02-24T00:53:19.315Z,65.57
2023-02-24T00:55:23.171Z,65.12
2023-02-24T00:57:25.969Z,65.66
2023-02-24T00:59:29.058Z,65.61
2023-02-24T01:01:33.681Z,64.86
2023-02-24T01:03:36.588Z,65.31
2023-02-24T01:05:40.810Z,65.71
2023-02-24T01:07:43.656Z,65.70
2023-02-24T01:09:46.460Z,65.67
2023-02-24T01:12:07.842Z,65.92
2023-02-24T01:14:13.752Z,65.95
2023-02-24T01:16:18.702Z,65.54
2023-02-24T01:18:21.521Z,65.27
2023-02-24T01:20:24.280Z,65.77
2023-02-24T01:22:28.491Z,66.23
2023-02-24T01:24:33.969Z,66.10
2023-02-24T01:26:36.848Z,65.79
2023-02-24T01:28:39.838Z,66.07
2023-02-24T01:30:43.785Z,66.41
2023-02-24T01:32:48.216Z,66.38
2023-02-24T01:34:53.263Z,66.25
2023-02-24T01:36:55.930Z,66.87
2023-02-24T01:39:00.587Z,66.47
2023-02-24T01:41:05.894Z,66.77
2023-02-24T01:43:11.181Z,66.89
2023-02-24T01:45:25.758Z,66.70
2023-02-24T01:47:31.274Z,66.17
2023-02-24T01:49:37.912Z,66.43
2023-02-24T01:51:44.928Z,66.18
2023-02-24T01:53:49.336Z,66.40
2023-02-24T01:55:54.400Z,66.39
2023-02-24T01:57:59.025Z,67.00
2023-02-24T02:00:12.059Z,66.92
2023-02-24T02:02:18.209Z,66.42
2023-02-24T02:04:29.473Z,66.93
2023-02-24T02:06:32.817Z,66.91
2023-02-24T02:08:38.005Z,66.68
2023-02-24T02:10:44.086Z,67.20
2023-02-24T02:12:48.253Z,67.08
2023-02-24T02:14:53.648Z,66.55
2023-02-24T02:17:09.844Z,66.69
2023-02-24T02:19:46.670Z,66.87
2023-02-24T02:22:10.051Z,66.92
2023-02-24T02:24:48.494Z,67.33
2023-02-24T02:27:23.483Z,67.39
2023-02-24T02:29:48.634Z,67.84
2023-02-24T02:32:17.166Z,67.83
2023-02-24T02:34:31.514Z,68.04
2023-02-24T02:36:42.966Z,67.59
2023-02-24T02:38:54.082Z,67.73
2023-02-24T02:41:07.033Z,67.90
2023-02-24T02:43:17.211Z,67.85
2023-02-24T02:45:25.394Z,68.17
2023-02-24T02:47:35.326Z,67.35
2023-02-24T02:49:43.952Z,67.16
2023-02-24T02:51:52.574Z,67.10
2023-02-24T02:54:01.419Z,66.62
2023-02-24T02:56:09.611Z,66.31
2023-02-24T02:58:16.392Z,66.37
2023-02-24T03:00:29.010Z,66.39
2023-02-24T03:02:39.916Z,66.68
2023-02-24T03:04:51.258Z,66.17
2023-02-24T03:07:00.735Z,66.49
2023-02-24T03:09:12.201Z,66.84
2023-02-24T03:11:20.345Z,65.60
2023-02-24T03:13:28.077Z,65.73
2023-02-24T03:15:34.076Z,66.15
2023-02-24T03:17:41.749Z,65.92
2023-02-24T03:19:54.345Z,65.37
2023-02-24T03:22:03.925Z,65.84
2023-02-24T03:24:08.045Z,65.64
2023-02-24T03:26:19.024Z,65.43
2023-02-24T03:28:30.450Z,65.07
2023-02-24T03:30:41.594Z,65.18
2023-02-24T03:32:55.740Z,65.76
2023-02-24T03:35:05.316Z,65.63
2023-02-24T03:37:09.344Z,66.15
2023-02-24T03:39:13.165Z,66.25
2023-02-24T03:41:30.370Z,66.31
2023-02-24T03:43:37.492Z,66.36
2023-02-24T03:45:42.644Z,66.01
2023-02-24T03:47:46.702Z,65.96
2023-02-24T03:49:50.292Z,66.66
2023-02-24T03:52:09.499Z,66.34
2023-02-24T03:54:30.894Z,66.34
2023-02-24T03:56:45.847Z,66.60
2023-02-24T03:59:03.106Z,66.35
2023-02-24T04:01:15.673Z,66.62
2023-02-24T04:03:26.497Z,66.40
2023-02-24T04:05:47.359Z,66.22
2023-02-24T04:07:57.922Z,66.68
2023-02-24T04:10:06.478Z,66.50
2023-02-24T04:12:17.215Z,65.98
2023-02-24T04:14:28.644Z,66.19
2023-02-24T04:16:40.000Z,66.10
2023-02-24T04:18:43.132Z,66.08
2023-02-24T04:20:49.411Z,66.32
2023-02-24T04:23:00.714Z,66.39
2023-02-24T04:25:13.212Z,66.15
2023-02-24T04:27:19.502Z,66.63
2023-02-24T04:29:24.889Z,66.06
2023-02-24T04:31:29.220Z,65.94
2023-02-24T04:33:32.288Z,66.01
2023-02-24T04:35:35.381Z,66.14
2023-02-24T04:37:39.605Z,65.84
2023-02-24T04:39:44.777Z,66.43
2023-02-24T04:41:57.652Z,66.40
2023-02-24T04:44:01.668Z,66.42
2023-02-24T04:46:08.148Z,66.12
2023-02-24T04:48:13.376Z,66.03
2023-02-24T04:50:22.849Z,66.19
2023-02-24T04:52:25.726Z,66.56
2023-02-24T04:54:29.664Z,66.87
2023-02-24T04:56:33.830Z,66.53
2023-02-24T04:58:38.605Z,66.21
2023-02-24T05:00:42.281Z,66.01
2023-02-24T05:02:45.149Z,66.45
2023-02-24T05:04:49.523Z,66.22
2023-02-24T05:06:52.390Z,65.83
2023-02-24T05:08:55.141Z,66.07
2023-02-24T05:11:00.390Z,66.09
2023-02-24T05:13:06.708Z,66.59
2023-02-24T05:15:10.167Z,66.54
2023-02-24T05:17:16.304Z,66.54
2023-02-24T05:19:38.590Z,67.01
2023-02-24T05:21:41.838Z,66.50
2023-02-24T05:23:46.645Z,66.99
2023-02-24T05:25:49.271Z,67.06
2023-02-24T05:27:52.119Z,67.27
2023-02-24T05:29:56.444Z,67.50
2023-02-24T05:32:00.395Z,67.29
2023-02-24T05:34:05.945Z,67.47
2023-02-24T05:36:12.103Z,67.64
2023-02-24T05:38:19.627Z,67.54
2023-02-24T05:40:24.069Z,68.02
2023-02-24T05:42:27.659Z,68.16
2023-02-24T05:44:31.694Z,68.19
2023-02-24T05:46:38.245Z,67.88
2023-02-24T05:48:41.138Z,67.87
2023-02-24T05:50:46.803Z,67.88
2023-02-24T05:52:49.552Z,67.99
2023-02-24T05:54:53.403Z,67.85
2023-02-24T05:56:57.938Z,67.96
2023-02-24T05:59:02.734Z,68.10
2023-02-24T06:01:16.053Z,67.92
2023-02-24T06:03:30.778Z,68.13
2023-02-24T06:05:33.582Z,68.27
2023-02-24T06:07:36.409Z,68.09
2023-02-24T06:09:40.292Z,67.93
2023-02-24T06:11:45.196Z,67.78
2023-02-24T06:13:48.690Z,67.66
2023-02-24T06:15:57.223Z,67.21
2023-02-24T06:18:01.163Z,67.18
2023-02-24T06:20:13.274Z,67.16
2023-02-24T06:22:19.075Z,67.13
2023-02-24T06:24:21.993Z,66.97
2023-02-24T06:26:29.691Z,66.41
2023-02-24T06:28:33.515Z,66.79
2023-02-24T06:30:37.710Z,66.27
2023-02-24T06:32:41.156Z,66.17
2023-02-24T06:34:44.343Z,66.06
2023-02-24T06:36:49.012Z,65.64
2023-02-24T06:38:52.551Z,65.74
2023-02-24T06:40:58.546Z,66.17
2023-02-24T06:43:02.741Z,66.17
2023-02-24T06:45:08.312Z,65.89
2023-02-24T06:47:14.726Z,66.26
2023-02-24T06:49:17.498Z,66.03
2023-02-24T06:51:20.511Z,66.54
2023-02-24T06:53:26.552Z,65.93
2023-02-24T06:55:29.381Z,64.99
2023-02-24T06:57:34.409Z,64.56
2023-02-24T06:59:37.288Z,64.68
2023-02-24T07:01:45.149Z,64.59
2023-02-24T07:04:03.348Z,64.74
2023-02-24T07:06:20.399Z,65.29
2023-02-24T07:08:27.178Z,65.29
2023-02-24T07:10:29.977Z,64.88
2023-02-24T07:12:33.961Z,64.57
2023-02-24T07:14:36.948Z,64.24
2023-02-24T07:16:41.806Z,64.71
2023-02-24T07:18:48.299Z,65.09
2023-02-24T07:20:51.760Z,64.96
2023-02-24T07:22:54.572Z,64.38
2023-02-24T07:25:01.546Z,64.17
2023-02-24T07:27:06.493Z,64.07
2023-02-24T07:29:11.402Z,63.87
2023-02-24T07:31:17.291Z,63.72
2023-02-24T07:33:20.355Z,63.75
2023-02-24T07:35:23.843Z,64.15
2023-02-24T07:37:31.382Z,64.22
2023-02-24T07:39:35.078Z,64.46
2023-02-24T07:41:45.286Z,63.81
2023-02-24T07:43:48.824Z,63.77
2023-02-24T07:45:52.722Z,64.44
2023-02-24T07:47:55.575Z,64.38
2023-02-24T07:50:00.284Z,64.41
2023-02-24T07:52:03.107Z,64.46
2023-02-24T07:54:08.596Z,64.08
2023-02-24T07:56:14.372Z,64.30
2023-02-24T07:58:19.100Z,64.41
2023-02-24T08:00:28.092Z,64.05
2023-02-24T08:02:30.936Z,64.42
2023-02-24T08:04:33.890Z,64.59
2023-02-24T08:06:38.987Z,64.50
2023-02-24T08:08:57.795Z,64.75
2023-02-24T08:11:04.093Z,64.45
2023-02-24T08:13:06.961Z,65.04
2023-02-24T08:15:18.036Z,64.60
2023-02-24T08:17:22.786Z,65.07
2023-02-24T08:19:32.725Z,64.78
2023-02-24T08:21:38.254Z,64.88
2023-02-24T08:23:44.554Z,64.98
2023-02-24T08:25:47.379Z,63.72
2023-02-24T08:28:12.270Z,64.14
2023-02-24T08:30:23.404Z,64.02
2023-02-24T08:32:33.524Z,63.20
2023-02-24T08:34:36.499Z,63.27
2023-02-24T08:36:39.304Z,63.78
2023-02-24T08:38:42.525Z,64.41
2023-02-24T08:40:54.811Z,63.74
2023-02-24T08:42:59.451Z,64.18
2023-02-24T08:45:03.508Z,64.43
2023-02-24T08:47:10.704Z,64.05
2023-02-24T08:49:16.988Z,64.46
2023-02-24T08:51:23.696Z,64.47
2023-02-24T08:53:31.419Z,64.88
2023-02-24T08:55:39.769Z,64.53
2023-02-24T08:57:53.574Z,64.82
2023-02-24T08:59:58.634Z,64.26
2023-02-24T09:02:15.692Z,64.72
2023-02-24T09:04:20.006Z,64.65
2023-02-24T09:06:26.509Z,64.30
2023-02-24T09:08:33.554Z,63.97
2023-02-24T09:10:37.750Z,64.18
2023-02-24T09:12:42.278Z,63.42
2023-02-24T09:14:45.047Z,63.00
2023-02-24T09:17:03.089Z,63.26
2023-02-24T09:19:40.577Z,62.91
2023-02-24T09:22:04.232Z,63.66
2023-02-24T09:24:12.613Z,63.47
2023-02-24T09:26:15.615Z,63.07
2023-02-24T09:28:20.216Z,62.21
2023-02-24T09:30:38.600Z,61.98
2023-02-24T09:32:47.796Z,61.65
2023-02-24T09:34:50.695Z,62.13
2023-02-24T09:37:03.026Z,62.22
2023-02-24T09:39:14.562Z,61.74
2023-02-24T09:41:31.736Z,61.86
2023-02-24T09:43:44.211Z,62.30
2023-02-24T09:45:58.511Z,61.63
2023-02-24T09:48:10.368Z,61.37
2023-02-24T09:50:59.138Z,62.19
2023-02-24T09:53:11.085Z,61.55
2023-02-24T09:55:24.955Z,61.94
2023-02-24T09:57:37.469Z,61.40
2023-02-24T10:00:01.027Z,61.11
2023-02-24T10:02:27.320Z,61.13
2023-02-24T10:04:53.845Z,61.06
2023-02-24T10:07:05.680Z,60.94
2023-02-24T10:09:26.619Z,61.74
2023-02-24T10:11:36.735Z,61.83
2023-02-24T10:13:46.859Z,61.24
2023-02-24T10:16:05.870Z,60.71
2023-02-24T10:18:31.286Z,61.12
2023-02-24T10:20:40.374Z,61.16
2023-02-24T10:22:53.248Z,60.74
2023-02-24T10:25:11.785Z,60.29
2023-02-24T10:27:23.821Z,59.54
2023-02-24T10:29:39.064Z,59.78
2023-02-24T10:31:47.967Z,59.14
2023-02-24T10:33:53.759Z,60.05
2023-02-24T10:36:09.073Z,59.17
2023-02-24T10:38:12.414Z,58.08
2023-02-24T10:40:26.479Z,58.08
2023-02-24T10:42:32.612Z,58.04
2023-02-24T10:44:36.967Z,59.08
2023-02-24T10:46:42.165Z,58.89
2023-02-24T10:49:00.314Z,58.79
2023-02-24T10:51:10.053Z,59.02
2023-02-24T10:53:34.452Z,59.50
2023-02-24T10:56:01.981Z,59.58
2023-02-24T10:58:06.985Z,59.52
2023-02-24T11:00:41.630Z,58.83
2023-02-24T11:03:09.628Z,58.41
2023-02-24T11:05:38.121Z,58.07
2023-02-24T11:07:53.525Z,57.62
2023-02-24T11:10:11.896Z,56.90
2023-02-24T11:13:00.878Z,57.14
2023-02-24T11:15:35.698Z,57.19
2023-02-24T11:17:46.514Z,57.68
2023-02-24T11:19:55.560Z,57.51
2023-02-24T11:21:59.672Z,57.86
2023-02-24T11:24:03.523Z,57.18
2023-02-24T11:26:16.709Z,57.60
2023-02-24T11:28:42.501Z,57.75
2023-02-24T11:30:53.478Z,57.85
2023-02-24T11:33:15.106Z,56.55
2023-02-24T11:35:24.245Z,57.16
2023-02-24T11:37:38.180Z,56.68
2023-02-24T11:39:53.007Z,57.40
2023-02-24T11:42:00.114Z,57.80
2023-02-24T11:44:16.880Z,57.90
2023-02-24T11:46:27.853Z,57.21
2023-02-24T11:48:37.069Z,57.82
2023-02-24T11:50:45.491Z,58.39
2023-02-24T11:52:52.131Z,57.57
2023-02-24T11:54:57.942Z,57.26
2023-02-24T11:57:01.002Z,57.75
2023-02-24T11:59:13.317Z,57.74
2023-02-24T12:01:24.441Z,57.31
2023-02-24T12:03:34.064Z,57.93
2023-02-24T12:05:40.623Z,57.53
2023-02-24T12:07:46.827Z,58.18
2023-02-24T12:10:00.435Z,57.02
2023-02-24T12:12:16.403Z,58.01
2023-02-24T12:14:37.341Z,56.98
2023-02-24T12:16:45.834Z,56.92
2023-02-24T12:18:54.392Z,57.17
2023-02-24T12:21:01.673Z,56.97
2023-02-24T12:23:17.153Z,56.62
2023-02-24T12:25:26.163Z,56.81
2023-02-24T12:27:46.640Z,56.86
2023-02-24T12:30:06.866Z,56.40
2023-02-24T12:32:20.998Z,57.34
2023-02-24T12:34:35.319Z,56.69
2023-02-24T12:37:17.654Z,55.85
2023-02-24T12:39:23.169Z,56.36
2023-02-24T12:41:56.946Z,55.42
2023-02-24T12:44:07.838Z,55.53
2023-02-24T12:46:23.017Z,55.84
2023-02-24T12:48:50.466Z,55.86
2023-02-24T12:51:02.013Z,55.53
2023-02-24T12:53:12.195Z,55.39
2023-02-24T12:55:22.911Z,54.53
2023-02-24T12:57:33.331Z,54.81
2023-02-24T12:59:40.057Z,55.14
2023-02-24T13:01:52.611Z,54.44
2023-02-24T13:04:05.504Z,54.50
2023-02-24T13:06:16.756Z,53.86
2023-02-24T13:08:36.596Z,52.92
2023-02-24T13:10:46.978Z,51.28
2023-02-24T13:13:05.430Z,51.13
2023-02-24T13:15:21.676Z,51.87
2023-02-24T13:17:27.897Z,51.79
2023-02-24T13:19:31.240Z,51.76
2023-02-24T13:21:35.068Z,51.97
2023-02-24T13:23:42.725Z,52.28
2023-02-24T13:25:52.346Z,52.53
2023-02-24T13:28:00.051Z,52.61
2023-02-24T13:30:08.224Z,52.50
2023-02-24T13:32:28.330Z,52.08
2023-02-24T13:34:34.610Z,50.11
2023-02-24T13:36:47.621Z,50.02
2023-02-24T13:38:51.849Z,51.53
2023-02-24T13:40:55.348Z,50.38
2023-02-24T13:43:04.790Z,50.86
2023-02-24T13:45:21.257Z,50.90
2023-02-24T13:47:49.806Z,50.95
2023-02-24T13:50:04.975Z,51.69
2023-02-24T13:52:36.109Z,51.64
2023-02-24T13:55:13.187Z,51.72
2023-02-24T13:57:42.965Z,51.74
2023-02-24T14:00:10.012Z,52.10
2023-02-24T14:02:17.769Z,51.63
2023-02-24T14:04:28.342Z,50.98
2023-02-24T14:06:32.961Z,50.85
2023-02-24T14:08:44.705Z,49.91
2023-02-24T14:10:53.261Z,48.42
2023-02-24T14:13:05.011Z,47.61
2023-02-24T14:15:14.365Z,47.15
2023-02-24T14:17:28.402Z,46.72
2023-02-24T14:19:32.567Z,45.84
2023-02-24T14:21:35.430Z,45.42
2023-02-24T14:23:38.196Z,46.11
2023-02-24T14:25:41.062Z,46.54
2023-02-24T14:27:45.155Z,46.85
2023-02-24T14:29:48.045Z,47.12
2023-02-24T14:31:53.344Z,47.00
2023-02-24T14:33:59.877Z,46.77
2023-02-24T14:36:06.158Z,47.35
2023-02-24T14:38:28.940Z,47.15
2023-02-24T14:40:32.903Z,47.05
2023-02-24T14:42:36.283Z,46.55
2023-02-24T14:44:42.528Z,46.88
2023-02-24T14:46:49.962Z,46.56
2023-02-24T14:48:56.045Z,46.14
2023-02-24T14:51:05.583Z,46.80
2023-02-24T14:53:13.979Z,45.90
2023-02-24T14:55:21.237Z,45.51
2023-02-24T14:57:27.539Z,45.92
2023-02-24T14:59:33.349Z,46.48
2023-02-24T15:01:40.190Z,46.92
2023-02-24T15:03:48.482Z,46.81
2023-02-24T15:05:55.157Z,45.84
2023-02-24T15:08:00.669Z,46.00
2023-02-24T15:10:05.167Z,46.09
2023-02-24T15:12:20.267Z,46.58
2023-02-24T15:14:25.878Z,45.84
2023-02-24T15:16:34.061Z,45.48
2023-02-24T15:18:36.935Z,45.75
2023-02-24T15:20:41.925Z,45.99
2023-02-24T15:22:50.171Z,45.92
2023-02-24T15:24:56.701Z,45.30
2023-02-24T15:27:01.918Z,44.91
2023-02-24T15:29:14.132Z,44.71
2023-02-24T15:31:19.034Z,44.77
2023-02-24T15:33:24.477Z,45.54
2023-02-24T15:35:27.328Z,44.62
2023-02-24T15:37:38.875Z,44.65
2023-02-24T15:39:44.655Z,44.81
2023-02-24T15:41:49.089Z,45.74
2023-02-24T15:43:56.261Z,45.54
2023-02-24T15:45:59.095Z,45.76
2023-02-24T15:48:03.347Z,45.55
2023-02-24T15:50:06.932Z,45.84
2023-02-24T15:52:11.716Z,45.74
2023-02-24T15:54:17.743Z,45.66
2023-02-24T15:56:21.661Z,45.20
2023-02-24T15:58:26.054Z,45.27
2023-02-24T16:00:31.025Z,44.97
2023-02-24T16:02:35.012Z,45.02
2023-02-24T16:04:39.090Z,46.04
2023-02-24T16:06:54.503Z,44.98
2023-02-24T16:08:59.228Z,45.32
2023-02-24T16:11:03.182Z,45.27
2023-02-24T16:13:06.079Z,45.43
2023-02-24T16:15:19.772Z,45.69
2023-02-24T16:17:29.397Z,44.94
2023-02-24T16:19:32.154Z,45.84
2023-02-24T16:21:35.145Z,45.71
2023-02-24T16:23:40.655Z,45.19
2023-02-24T16:25:45.235Z,45.25
2023-02-24T16:27:48.109Z,46.03
2023-02-24T16:29:51.480Z,45.69
2023-02-24T16:31:55.886Z,45.68
2023-02-24T16:34:02.084Z,45.13
2023-02-24T16:36:10.494Z,45.29
2023-02-24T16:38:15.236Z,45.54
2023-02-24T16:40:27.108Z,45.98
2023-02-24T16:42:31.251Z,45.92
2023-02-24T16:44:34.189Z,45.66
2023-02-24T16:46:41.114Z,45.56
2023-02-24T16:48:47.618Z,45.93
2023-02-24T16:50:51.063Z,45.52
2023-02-24T16:52:53.933Z,45.40
2023-02-24T16:54:56.719Z,45.98
2023-02-24T16:56:59.927Z,45.27
2023-02-24T16:59:02.754Z,45.29
2023-02-24T17:01:06.433Z,45.95
2023-02-24T17:03:17.889Z,45.24
2023-02-24T17:05:24.119Z,45.57
2023-02-24T17:07:27.198Z,45.92
2023-02-24T17:09:31.591Z,46.07
2023-02-24T17:11:34.720Z,45.98
2023-02-24T17:13:37.535Z,46.20
2023-02-24T17:15:40.471Z,46.24
2023-02-24T17:17:43.505Z,46.05
2023-02-24T17:19:46.352Z,46.45
2023-02-24T17:21:50.569Z,46.52
2023-02-24T17:23:53.344Z,46.62
2023-02-24T17:25:59.546Z,46.79
2023-02-24T17:28:04.785Z,46.94
2023-02-24T17:30:14.402Z,47.19
2023-02-24T17:32:17.342Z,46.79
2023-02-24T17:34:21.783Z,46.61
2023-02-24T17:36:24.792Z,46.20
2023-02-24T17:38:28.940Z,45.74
2023-02-24T17:40:31.728Z,45.97
2023-02-24T17:42:34.893Z,46.41
2023-02-24T17:44:37.657Z,46.01
2023-02-24T17:46:40.567Z,46.08
2023-02-24T17:48:43.396Z,46.36
2023-02-24T17:50:46.711Z,45.97
2023-02-24T17:52:49.508Z,45.35
2023-02-24T17:54:53.844Z,45.78
2023-02-24T17:56:56.632Z,45.98
2023-02-24T17:59:00.921Z,45.76
2023-02-24T18:01:05.687Z,45.37
2023-02-24T18:03:08.578Z,44.76
2023-02-24T18:05:11.459Z,45.98
2023-02-24T18:07:14.642Z,45.41
2023-02-24T18:09:17.437Z,45.27
2023-02-24T18:11:21.680Z,45.68
2023-02-24T18:13:24.536Z,45.04
2023-02-24T18:15:27.372Z,45.76
2023-02-24T18:17:30.369Z,45.21
2023-02-24T18:19:33.186Z,43.88
2023-02-24T18:21:36.005Z,43.66
2023-02-24T18:23:40.193Z,43.39
2023-02-24T18:25:43.151Z,42.54
2023-02-24T18:27:47.350Z,43.93
2023-02-24T18:29:50.171Z,43.12
2023-02-24T18:31:53.074Z,43.94
2023-02-24T18:33:57.386Z,42.91
2023-02-24T18:36:00.550Z,42.68
2023-02-24T18:38:03.375Z,42.85
2023-02-24T18:40:07.644Z,43.96
2023-02-24T18:42:11.644Z,44.25
2023-02-24T18:44:15.787Z,44.70
2023-02-24T18:46:20.702Z,46.31
2023-02-24T18:48:23.933Z,46.81
2023-02-24T18:50:26.735Z,47.85
2023-02-24T18:52:29.504Z,47.81
2023-02-24T18:54:33.171Z,48.13
2023-02-24T18:56:36.259Z,48.99
2023-02-24T18:58:40.587Z,49.58
2023-02-24T19:00:46.158Z,49.03
2023-02-24T19:02:49.113Z,48.72
2023-02-24T19:04:53.200Z,49.66
2023-02-24T19:06:56.080Z,49.41
2023-02-24T19:09:01.922Z,50.01
2023-02-24T19:11:10.002Z,50.13
2023-02-24T19:13:13.200Z,50.09
2023-02-24T19:15:17.639Z,50.22
2023-02-24T19:17:21.789Z,51.33
2023-02-24T19:19:24.794Z,52.03
2023-02-24T19:21:29.346Z,51.72
2023-02-24T19:23:32.258Z,53.45
2023-02-24T19:25:35.289Z,53.97
2023-02-24T19:27:38.136Z,55.04
2023-02-24T19:29:40.934Z,56.02
2023-02-24T19:31:44.307Z,56.30
2023-02-24T19:33:52.610Z,56.73
2023-02-24T19:35:59.494Z,56.63
2023-02-24T19:38:02.323Z,57.81
2023-02-24T19:40:05.464Z,57.69
2023-02-24T19:42:08.274Z,58.23
2023-02-24T19:44:11.751Z,58.41
2023-02-24T19:46:16.500Z,58.85
2023-02-24T19:48:19.402Z,59.47
2023-02-24T19:50:23.556Z,60.54
2023-02-24T19:52:26.350Z,61.33
2023-02-24T19:54:30.128Z,62.10
2023-02-24T19:56:35.858Z,61.79
2023-02-24T19:58:38.782Z,62.23
2023-02-24T20:00:41.637Z,63.02
2023-02-24T20:02:44.404Z,63.27
2023-02-24T20:04:47.229Z,64.24
2023-02-24T20:06:51.764Z,64.68
2023-02-24T20:08:55.273Z,64.44
2023-02-24T20:11:01.680Z,64.39
2023-02-24T20:13:05.029Z,64.60
2023-02-24T20:15:09.106Z,64.37
2023-02-24T20:17:11.891Z,64.90
2023-02-24T20:19:16.065Z,64.52
2023-02-24T20:21:18.872Z,64.47
2023-02-24T20:23:22.995Z,64.88
2023-02-24T20:25:25.790Z,64.78
2023-02-24T20:27:28.603Z,65.23
2023-02-24T20:29:32.907Z,65.60
2023-02-24T20:31:36.350Z,65.48
2023-02-24T20:33:41.245Z,65.65
2023-02-24T20:35:43.927Z,66.55
2023-02-24T20:37:47.686Z,65.89
2023-02-24T20:39:53.527Z,65.90
2023-02-24T20:41:56.380Z,65.96
2023-02-24T20:43:59.335Z,66.20
2023-02-24T20:46:13.989Z,66.29
2023-02-24T20:48:16.964Z,65.99
2023-02-24T20:50:19.764Z,66.57
2023-02-24T20:52:22.586Z,66.37
2023-02-24T20:54:26.416Z,66.08
2023-02-24T20:56:34.013Z,66.00
2023-02-24T20:58:36.869Z,66.07
2023-02-24T21:00:40.516Z,66.58
2023-02-24T21:02:44.534Z,66.27
2023-02-24T21:04:47.386Z,66.60
2023-02-24T21:06:51.853Z,66.72
2023-02-24T21:08:54.837Z,66.99
2023-02-24T21:10:57.646Z,67.20
2023-02-24T21:13:01.883Z,67.03
2023-02-24T21:15:06.277Z,66.88
2023-02-24T21:17:09.156Z,67.58
2023-02-24T21:19:11.921Z,67.68
2023-02-24T21:21:16.260Z,68.16
2023-02-24T21:23:19.658Z,67.79
2023-02-24T21:25:22.399Z,67.70
2023-02-24T21:27:25.758Z,67.86
2023-02-24T21:29:30.089Z,67.79
2023-02-24T21:31:33.016Z,68.00
2023-02-24T21:33:35.936Z,68.08
2023-02-24T21:35:38.823Z,67.88
2023-02-24T21:37:41.670Z,68.31
2023-02-24T21:39:44.520Z,67.58
2023-02-24T21:41:48.012Z,67.48
2023-02-24T21:43:54.619Z,67.24
2023-02-24T21:46:01.847Z,67.28
2023-02-24T21:48:05.071Z,67.48
2023-02-24T21:50:11.817Z,66.95
2023-02-24T21:52:14.828Z,67.53
2023-02-24T21:54:17.679Z,66.66
2023-02-24T21:56:21.241Z,66.87
2023-02-24T21:58:25.181Z,66.77
2023-02-24T22:00:28.608Z,66.85
2023-02-24T22:02:32.799Z,67.40
2023-02-24T22:04:35.631Z,67.16
2023-02-24T22:06:39.770Z,67.24
2023-02-24T22:08:45.255Z,66.70
2023-02-24T22:10:57.554Z,66.72
2023-02-24T22:13:01.537Z,66.87
2023-02-24T22:15:04.985Z,67.11
2023-02-24T22:17:07.755Z,66.73
2023-02-24T22:19:12.800Z,67.13
2023-02-24T22:21:19.587Z,66.22
2023-02-24T22:23:22.407Z,66.25
2023-02-24T22:25:25.221Z,66.07
2023-02-24T22:27:29.491Z,65.85
2023-02-24T22:29:32.286Z,66.48
2023-02-24T22:31:36.455Z,65.68
2023-02-24T22:33:41.176Z,65.89
2023-02-24T22:35:45.276Z,65.61
2023-02-24T22:37:48.023Z,65.48
2023-02-24T22:39:50.904Z,65.36
2023-02-24T22:41:53.644Z,64.93
2023-02-24T22:43:56.483Z,65.11
2023-02-24T22:46:00.812Z,65.14
2023-02-24T22:48:03.691Z,64.71
2023-02-24T22:50:06.980Z,64.66
2023-02-24T22:52:11.522Z,64.98
2023-02-24T22:54:14.308Z,64.76
2023-02-24T22:56:19.258Z,64.49
2023-02-24T22:58:22.468Z,64.87
2023-02-24T23:00:26.226Z,64.94
2023-02-24T23:02:28.972Z,64.16
2023-02-24T23:04:31.734Z,64.71
2023-02-24T23:06:36.547Z,64.02
2023-02-24T23:08:41.932Z,63.20
2023-02-24T23:10:44.676Z,63.41
2023-02-24T23:12:48.561Z,61.90
2023-02-24T23:14:51.557Z,61.40
2023-02-24T23:16:55.718Z,60.42
2023-02-24T23:19:00.880Z,61.07
2023-02-24T23:21:06.061Z,60.86
2023-02-24T23:23:10.604Z,60.95
2023-02-24T23:25:14.892Z,60.01
2023-02-24T23:27:17.704Z,59.06
2023-02-24T23:29:22.253Z,59.45
2023-02-24T23:31:25.187Z,59.99
2023-02-24T23:33:28.131Z,59.38
2023-02-24T23:35:31.012Z,59.07
2023-02-24T23:37:33.794Z,59.46
2023-02-24T23:39:36.546Z,59.36
2023-02-24T23:41:42.030Z,59.42
2023-02-24T23:43:44.915Z,59.02
2023-02-24T23:45:47.740Z,58.94
2023-02-24T23:47:50.569Z,59.42
2023-02-24T23:49:53.417Z,59.35
2023-02-24T23:51:56.180Z,59.42
2023-02-24T23:53:59.319Z,59.53
2023-02-24T23:56:02.120Z,59.47
2023-02-24T23:58:06.329Z,59.35
